Time;durP1;ratioP1;P1;durP2;ratioP2;P2;SDS_P1;SDS_P2;PMS_P1;PMS_P2;Temp;Humidity;BMP_temperature;BMP_pressure;BME280_temperature;BME280_humidity;BME280_pressure;Samples;Min_cycle;Max_cycle;Signal;HPM_P1;HPM_P2
2022/07/06 00:01:50;;;;;;;4.00;3.80;;;;;;;13.35;98.64;65577.16;5116830;28;20190;-72
2022/07/06 00:04:17;;;;;;;3.53;3.43;;;;;;;13.42;98.13;65585.50;5116557;28;20251;-71
2022/07/06 00:06:44;;;;;;;4.20;4.10;;;;;;;13.34;98.24;65581.81;5117351;28;20214;-71
2022/07/06 00:09:11;;;;;;;4.67;4.57;;;;;;;13.26;98.16;65567.16;5116715;28;20207;-71
2022/07/06 00:11:38;;;;;;;4.17;3.97;;;;;;;13.21;98.64;65573.13;5116597;28;20248;-71
2022/07/06 00:14:05;;;;;;;4.90;4.40;;;;;;;13.13;98.88;65553.81;5116545;28;20236;-71
2022/07/06 00:16:32;;;;;;;3.80;3.70;;;;;;;13.02;98.35;65546.25;5116560;28;20214;-71
2022/07/06 00:18:58;;;;;;;4.77;4.23;;;;;;;13.02;98.52;65541.03;5117026;28;20195;-71
2022/07/06 00:21:24;;;;;;;4.40;4.03;;;;;;;;;;5116482;28;20667;-72
2022/07/06 00:23:51;;;;;;;4.03;3.87;;;;;;;12.90;99.06;65534.03;5116348;28;20220;-72
2022/07/06 00:26:18;;;;;;;4.63;4.53;;;;;;;12.93;99.07;65531.59;5116925;28;20189;-72
2022/07/06 00:28:45;;;;;;;4.33;4.23;;;;;;;12.96;98.78;65540.13;5116337;28;20678;-72
2022/07/06 00:31:12;;;;;;;3.73;3.73;;;;;;;12.82;99.38;65529.81;5116459;28;20205;-72
2022/07/06 00:33:38;;;;;;;4.40;4.30;;;;;;;12.82;99.38;65522.53;5097875;28;20215;-72
2022/07/06 00:36:05;;;;;;;3.57;3.37;;;;;;;12.86;99.00;65529.59;5116503;28;20177;-72
2022/07/06 00:38:32;;;;;;;3.97;3.97;;;;;;;12.83;99.23;65517.88;5116687;28;20285;-72
2022/07/06 00:40:58;;;;;;;3.57;3.47;;;;;;;12.79;99.48;65516.06;5116073;28;20225;-72
2022/07/06 00:43:25;;;;;;;3.97;3.97;;;;;;;12.82;99.42;65519.94;5116030;28;20256;-72
2022/07/06 00:45:51;;;;;;;4.37;3.93;;;;;;;;;;5116027;28;20215;-72
2022/07/06 00:48:18;;;;;;;3.87;3.87;;;;;;;12.79;99.61;65532.25;5115902;28;20220;-72
2022/07/06 00:50:44;;;;;;;4.53;4.10;;;;;;;12.75;99.97;65517.38;5116399;28;20196;-72
2022/07/06 00:53:12;;;;;;;3.33;3.33;;;;;;;12.77;99.70;65516.97;5115845;28;20213;-72
2022/07/06 00:55:39;;;;;;;3.77;3.63;;;;;;;12.80;99.80;65522.38;5115820;28;20186;-72
2022/07/06 00:58:07;;;;;;;3.97;3.90;;;;;;;12.84;100.00;65529.41;5115805;28;20240;-72
2022/07/06 01:00:35;;;;;;;3.73;3.73;;;;;;;12.87;99.88;65530.69;5097528;28;20608;-72
2022/07/06 01:03:02;;;;;;;3.50;3.50;;;;;;;12.83;99.63;65526.25;5115618;28;20265;-71
2022/07/06 01:05:29;;;;;;;4.17;3.57;;;;;;;12.79;99.59;65516.06;5115540;28;20212;-71
2022/07/06 01:07:56;;;;;;;3.47;3.37;;;;;;;12.81;99.64;65524.03;5097349;28;20219;-71
2022/07/06 01:10:23;;;;;;;3.60;3.50;;;;;;;12.80;99.80;65517.16;5115834;28;20187;-71
2022/07/06 01:12:50;;;;;;;3.67;3.57;;;;;;;12.78;100.00;65520.69;5115372;28;20207;-71
2022/07/06 01:15:21;;;;;;;3.73;3.50;;;;;;;12.83;99.52;65523.66;5115470;28;20193;-72
2022/07/06 01:17:49;;;;;;;3.77;3.67;;;;;;;12.81;99.79;65518.81;5097121;28;20260;-72
2022/07/06 01:20:21;;;;;;;4.00;3.80;;;;;;;12.67;100.00;65516.31;5097061;28;20223;-72
2022/07/06 01:22:49;;;;;;;4.47;4.23;;;;;;;12.67;100.00;65503.28;5115447;28;20233;-71
2022/07/06 01:25:16;;;;;;;3.90;3.90;;;;;;;12.74;99.85;65518.31;5115498;28;20196;-71
2022/07/06 01:27:43;;;;;;;5.10;4.00;;;;;;;12.71;100.00;65510.31;5096954;28;20221;-71
2022/07/06 01:30:18;;;;;;;3.50;3.50;;;;;;;12.67;100.00;65503.28;5115154;28;20185;-71
2022/07/06 01:32:46;;;;;;;3.60;3.50;;;;;;;12.63;100.00;65499.38;5096777;28;20690;-71
2022/07/06 01:35:14;;;;;;;4.03;3.73;;;;;;;12.59;100.00;65497.00;5097032;28;20604;-71
2022/07/06 01:37:41;;;;;;;3.87;3.77;;;;;;;;;;5115295;28;20251;-71
2022/07/06 01:40:10;;;;;;;3.47;3.30;;;;;;;12.63;100.00;65498.81;5115232;28;20218;-71
2022/07/06 01:42:37;;;;;;;3.60;3.57;;;;;;;12.46;100.00;65485.72;5114816;28;20262;-71
2022/07/06 01:45:05;;;;;;;4.27;4.07;;;;;;;12.45;100.00;65476.81;5114867;28;20181;-71
2022/07/06 01:47:32;;;;;;;3.70;3.70;;;;;;;12.42;100.00;65472.91;5096540;28;20632;-71
2022/07/06 01:50:00;;;;;;;3.83;3.53;;;;;;;12.43;100.00;65479.22;5096496;28;20201;-71
2022/07/06 01:52:29;;;;;;;3.40;3.27;;;;;;;12.37;100.00;65473.69;5096332;28;20221;-71
2022/07/06 01:54:56;;;;;;;3.23;3.23;;;;;;;12.31;100.00;65463.88;5096420;28;20205;-71
2022/07/06 01:57:23;;;;;;;3.20;3.20;;;;;;;12.27;100.00;65465.19;5114649;28;20181;-71
2022/07/06 01:59:49;;;;;;;3.40;3.23;;;;;;;12.22;100.00;65446.63;5095907;28;20246;-72
2022/07/06 02:02:17;;;;;;;3.67;3.40;;;;;;;12.11;100.00;65444.81;5096221;28;20185;-71
2022/07/06 02:04:44;;;;;;;3.50;3.50;;;;;;;12.24;100.00;65459.25;5096395;28;20197;-71
2022/07/06 02:07:11;;;;;;;3.40;3.40;;;;;;;12.22;100.00;65464.28;5096122;28;20194;-71
2022/07/06 02:09:37;;;;;;;4.03;3.93;;;;;;;12.15;100.00;65446.13;5096257;28;20189;-71
2022/07/06 02:12:04;;;;;;;3.23;3.23;;;;;;;12.12;100.00;65451.69;5114546;28;20224;-71
2022/07/06 02:14:30;;;;;;;3.50;3.50;;;;;;;12.07;100.00;65442.97;5114323;28;20252;-71
2022/07/06 02:16:57;;;;;;;3.60;3.60;;;;;;;12.05;100.00;65435.56;5096631;28;20586;-71
2022/07/06 02:19:23;;;;;;;4.10;4.00;;;;;;;12.05;100.00;65445.97;5096003;28;20181;-71
2022/07/06 02:21:50;;;;;;;3.43;3.43;;;;;;;12.13;100.00;65462.66;5114473;28;20219;-71
2022/07/06 02:24:16;;;;;;;3.90;3.60;;;;;;;12.02;100.00;65434.84;5095928;28;20277;-71
2022/07/06 02:26:43;;;;;;;4.00;4.00;;;;;;;11.97;100.00;65426.69;5096523;28;20548;-71
2022/07/06 02:29:09;;;;;;;4.47;4.37;;;;;;;11.96;100.00;65433.94;5095913;28;20190;-71
2022/07/06 02:31:36;;;;;;;4.17;4.07;;;;;;;12.05;100.00;65436.09;5113940;28;20393;-71
2022/07/06 02:34:03;;;;;;;4.20;4.10;;;;;;;11.94;100.00;65421.31;5095849;28;20690;-71
2022/07/06 02:36:31;;;;;;;4.37;4.37;;;;;;;11.91;100.00;65420.03;5096411;28;20189;-71
2022/07/06 02:38:58;;;;;;;4.57;4.50;;;;;;;;;;5095768;28;20234;-71
2022/07/06 02:41:26;;;;;;;3.53;3.53;;;;;;;11.87;100.00;65426.00;5095635;28;20197;-71
2022/07/06 02:43:53;;;;;;;4.17;4.00;;;;;;;11.88;100.00;65422.47;5095776;28;20216;-71
2022/07/06 02:46:20;;;;;;;3.57;3.47;;;;;;;11.85;100.00;65414.47;5113876;28;20185;-71
2022/07/06 02:48:46;;;;;;;4.33;4.03;;;;;;;11.85;100.00;65416.50;5113826;28;20192;-71
2022/07/06 02:51:13;;;;;;;4.00;4.00;;;;;;;11.77;100.00;65410.78;5095544;28;20219;-71
2022/07/06 02:53:39;;;;;;;4.30;4.20;;;;;;;11.71;100.00;65396.31;5113690;28;20197;-71
2022/07/06 02:56:06;;;;;;;4.20;4.00;;;;;;;11.76;100.00;65411.72;5095459;28;20193;-71
2022/07/06 02:58:33;;;;;;;3.57;3.57;;;;;;;11.77;100.00;65412.81;5095471;28;20189;-72
2022/07/06 03:01:00;;;;;;;5.00;4.00;;;;;;;11.83;100.00;65409.66;5095391;28;20209;-72
2022/07/06 03:03:27;;;;;;;4.30;4.10;;;;;;;11.80;100.00;65413.56;5113586;28;20208;-71
2022/07/06 03:05:53;;;;;;;4.37;4.23;;;;;;;11.78;100.00;65406.13;5095347;28;20697;-71
2022/07/06 03:08:20;;;;;;;4.30;4.20;;;;;;;11.79;100.00;65405.19;5095403;28;20208;-71
2022/07/06 03:10:48;;;;;;;3.90;3.70;;;;;;;11.83;100.00;65409.66;5096166;28;20276;-71
2022/07/06 03:13:15;;;;;;;4.70;4.23;;;;;;;11.77;100.00;65405.56;5097708;28;20213;-71
2022/07/06 03:15:42;;;;;;;3.77;3.77;;;;;;;11.70;100.00;65394.66;5099455;28;20185;-72
2022/07/06 03:18:09;;;;;;;4.67;4.47;;;;;;;11.76;100.00;65401.31;5099492;28;20192;-71
2022/07/06 03:20:35;;;;;;;4.20;4.00;;;;;;;11.67;100.00;65401.72;5099433;28;20193;-72
2022/07/06 03:23:02;;;;;;;4.53;4.27;;;;;;;11.72;100.00;65402.09;5099364;28;20626;-72
2022/07/06 03:25:28;;;;;;;4.00;3.83;;;;;;;11.66;100.00;65393.38;5099305;28;20195;-72
2022/07/06 03:27:55;;;;;;;5.33;4.00;;;;;;;11.67;100.00;65393.94;5099287;28;20193;-72
2022/07/06 03:30:21;;;;;;;5.00;4.80;;;;;;;11.61;100.00;65389.88;5099253;28;20597;-72
2022/07/06 03:32:52;;;;;;;4.57;4.37;;;;;;;;;;5117724;28;20213;-72
2022/07/06 03:35:20;;;;;;;4.90;4.67;;;;;;;11.56;100.00;65384.88;5099089;28;20604;-72
2022/07/06 03:37:49;;;;;;;3.90;3.70;;;;;;;11.59;100.00;65390.81;5099006;28;20288;-72
2022/07/06 03:40:15;;;;;;;3.70;3.70;;;;;;;11.64;100.00;65390.59;5117854;28;20639;-72
2022/07/06 03:42:44;;;;;;;4.23;4.03;;;;;;;11.58;100.00;65397.50;5098853;28;20213;-71
2022/07/06 03:45:11;;;;;;;3.97;3.77;;;;;;;11.62;100.00;65388.38;5098924;28;20734;-71
2022/07/06 03:47:39;;;;;;;3.90;3.80;;;;;;;;;;5098812;28;20191;-71
2022/07/06 03:50:06;;;;;;;4.07;3.90;;;;;;;11.62;100.00;65399.34;5098870;28;20629;-72
2022/07/06 03:52:34;;;;;;;4.27;3.97;;;;;;;11.67;100.00;65402.28;5098583;28;20221;-71
2022/07/06 03:55:01;;;;;;;5.10;4.60;;;;;;;11.70;100.00;65395.22;5098924;28;20185;-71
2022/07/06 03:57:29;;;;;;;4.40;4.30;;;;;;;11.68;100.00;65398.19;5098772;28;20242;-71
2022/07/06 03:59:59;;;;;;;4.47;4.27;;;;;;;11.66;100.00;65395.97;5098943;28;20192;-72
2022/07/06 04:02:26;;;;;;;4.67;4.50;;;;;;;11.69;100.00;65401.34;5099284;28;20229;-72
2022/07/06 04:04:53;;;;;;;4.90;4.80;;;;;;;11.78;100.00;65411.88;5097914;28;20193;-72
2022/07/06 04:07:20;;;;;;;4.10;4.10;;;;;;;11.76;100.00;65401.31;5098226;28;20189;-72
2022/07/06 04:09:47;;;;;;;4.80;4.63;;;;;;;11.76;100.00;65409.66;5098200;28;20185;-72
2022/07/06 04:12:14;;;;;;;5.00;4.63;;;;;;;11.94;100.00;65420.75;5097095;28;20213;-71
2022/07/06 04:14:43;;;;;;;4.57;4.40;;;;;;;11.84;100.00;65423.22;5115728;28;20185;-72
2022/07/06 04:19:55;;;;;;;4.50;4.30;;;;;;;11.97;100.00;65437.09;5097693;28;20720;-72
2022/07/06 04:22:21;;;;;;;4.97;4.63;;;;;;;11.94;100.00;65423.38;5097241;28;20575;-72
2022/07/06 04:24:48;;;;;;;4.30;4.10;;;;;;;11.96;100.00;65426.13;5096642;28;20280;-72
2022/07/06 04:27:14;;;;;;;8.60;4.30;;;;;;;;;;5115255;28;20196;-72
2022/07/06 04:29:42;;;;;;;4.20;3.90;;;;;;;12.15;100.00;65454.47;5097032;28;20186;-74
2022/07/06 04:32:08;;;;;;;3.90;3.80;;;;;;;12.16;100.00;65447.78;5097561;28;20296;-73
2022/07/06 04:34:35;;;;;;;3.43;3.40;;;;;;;12.24;100.00;65454.03;5096902;28;20242;-73
2022/07/06 04:37:02;;;;;;;3.80;3.43;;;;;;;12.25;100.00;65457.75;5097985;28;20276;-73
2022/07/06 04:39:31;;;;;;;3.43;3.43;;;;;;;12.31;100.00;65467.03;5097395;28;20254;-73
2022/07/06 04:41:58;;;;;;;3.60;3.43;;;;;;;12.37;100.00;65473.13;5115265;28;20246;-73
2022/07/06 04:44:24;;;;;;;5.53;3.67;;;;;;;12.46;100.00;65477.91;5096511;28;20217;-73
2022/07/06 04:46:50;;;;;;;5.80;3.97;;;;;;;;;;5096885;28;20189;-73
2022/07/06 04:49:17;;;;;;;6.60;4.00;;;;;;;;;;5114843;28;20552;-72
2022/07/06 04:51:43;;;;;;;4.33;3.97;;;;;;;;;;5114884;28;20242;-72
2022/07/06 04:54:10;;;;;;;3.20;3.07;;;;;;;;;;5096365;28;20745;-73
2022/07/06 04:56:37;;;;;;;3.70;3.50;;;;;;;12.61;100.00;65507.03;5096494;28;20193;-73
2022/07/06 04:59:03;;;;;;;3.80;3.70;;;;;;;12.67;100.00;65511.66;5096546;28;20213;-73
2022/07/06 05:01:30;;;;;;;5.50;3.30;;;;;;;12.65;100.00;65499.00;5115201;28;20177;-72
2022/07/06 05:03:57;;;;;;;4.33;3.23;;;;;;;12.76;100.00;65513.28;5096346;28;20219;-73
2022/07/06 05:06:24;;;;;;;3.43;3.33;;;;;;;12.81;100.00;65518.81;5097326;28;20280;-73
2022/07/06 05:08:51;;;;;;;4.57;3.57;;;;;;;12.82;100.00;65525.16;5097551;28;20235;-72
2022/07/06 05:11:19;;;;;;;3.70;3.47;;;;;;;12.88;100.00;65531.81;5097231;28;20189;-72
2022/07/06 05:13:47;;;;;;;6.80;3.83;;;;;;;12.93;100.00;65542.03;5097067;28;20730;-72
2022/07/06 05:16:13;;;;;;;4.97;3.87;;;;;;;12.95;100.00;65531.78;5115412;28;20190;-73
2022/07/06 05:18:40;;;;;;;5.23;3.70;;;;;;;13.02;100.00;65543.66;5097121;28;20222;-73
2022/07/06 05:21:07;;;;;;;3.23;3.23;;;;;;;13.03;100.00;65542.72;5097381;28;20208;-73
2022/07/06 05:23:33;;;;;;;3.20;3.20;;;;;;;13.02;100.00;65533.22;5115261;28;20209;-73
2022/07/06 05:26:00;;;;;;;3.80;3.70;;;;;;;13.03;100.00;65547.38;5096900;28;20193;-73
2022/07/06 05:28:28;;;;;;;3.80;3.60;;;;;;;;;;5097205;28;20189;-73
2022/07/06 05:31:03;;;;;;;3.10;3.10;;;;;;;13.00;100.00;65538.81;5097097;28;20285;-73
2022/07/06 05:33:29;;;;;;;3.60;3.43;;;;;;;12.94;100.00;65535.88;5096663;28;20588;-73
2022/07/06 05:35:56;;;;;;;3.47;3.37;;;;;;;12.88;100.00;65531.81;5079284;28;20189;-73
2022/07/06 05:38:25;;;;;;;4.00;3.67;;;;;;;12.95;100.00;65531.78;5115821;28;20547;-73
2022/07/06 05:40:53;;;;;;;2.83;2.70;;;;;;;13.08;100.00;65545.66;5096747;28;20209;-73
2022/07/06 05:43:20;;;;;;;3.47;3.37;;;;;;;13.20;100.00;65568.88;5096920;28;20557;-73
2022/07/06 05:45:48;;;;;;;7.10;4.00;;;;;;;13.23;100.00;65569.59;5096809;28;20611;-73
2022/07/06 05:51:02;;;;;;;4.07;3.97;;;;;;;;;;5096506;28;20218;-72
2022/07/06 05:53:29;;;;;;;6.33;2.70;;;;;;;13.36;100.00;65578.25;5096386;28;20305;-72
2022/07/06 05:55:56;;;;;;;3.40;3.27;;;;;;;13.40;100.00;65580.66;5096389;28;20194;-73
2022/07/06 05:58:24;;;;;;;4.40;3.40;;;;;;;13.43;100.00;65586.63;5096745;28;20702;-73
2022/07/06 06:00:53;;;;;;;4.43;2.80;;;;;;;;;;5096293;28;20193;-73
2022/07/06 06:03:19;;;;;;;3.17;2.97;;;;;;;;;;5096252;28;20205;-73
2022/07/06 06:05:48;;;;;;;3.30;3.00;;;;;;;13.61;100.00;65611.28;5096651;28;20576;-73
2022/07/06 06:08:17;;;;;;;2.87;2.67;;;;;;;;;;5096177;28;20208;-73
2022/07/06 06:10:43;;;;;;;3.17;3.10;;;;;;;;;;5096090;28;20191;-73
2022/07/06 06:13:12;;;;;;;2.90;2.80;;;;;;;;;;5114459;28;20296;-73
2022/07/06 06:15:39;;;;;;;2.57;2.43;;;;;;;13.78;100.00;65622.34;5096085;28;20189;-73
2022/07/06 06:18:06;;;;;;;4.37;2.20;;;;;;;13.82;100.00;65628.84;5096068;28;20192;-73
2022/07/06 06:20:33;;;;;;;2.47;2.47;;;;;;;13.84;100.00;65633.66;5114154;28;20192;-73
2022/07/06 06:23:00;;;;;;;2.70;2.50;;;;;;;13.84;100.00;65636.28;5114114;28;20250;-72
2022/07/06 06:25:33;;;;;;;2.43;2.43;;;;;;;;;;5114175;28;20213;-73
2022/07/06 06:28:00;;;;;;;2.30;2.27;;;;;;;;;;5114131;28;20212;-73
2022/07/06 06:30:27;;;;;;;2.73;2.53;;;;;;;14.03;100.00;65652.19;5114080;28;20185;-73
2022/07/06 06:33:10;;;;;;;2.37;2.33;;;;;;;14.17;99.88;65664.59;5114039;28;20246;-73
2022/07/06 06:35:38;;;;;;;2.50;2.40;;;;;;;14.23;100.00;65675.94;5114284;28;20620;-73
2022/07/06 06:38:05;;;;;;;2.17;2.17;;;;;;;;;;5113955;28;20188;-73
2022/07/06 06:40:31;;;;;;;2.07;2.07;;;;;;;14.26;98.33;65681.88;5113803;28;20719;-73
2022/07/06 06:42:58;;;;;;;2.67;2.00;;;;;;;;;;5114070;28;20204;-73
2022/07/06 06:45:24;;;;;;;4.17;1.90;;;;;;;14.20;97.99;65667.91;5095539;28;20272;-73
2022/07/06 06:47:51;;;;;;;2.23;2.23;;;;;;;14.34;99.78;65682.94;5113681;28;20189;-73
2022/07/06 06:50:17;;;;;;;4.80;2.20;;;;;;;14.27;97.38;65683.53;5113810;28;20197;-73
2022/07/06 06:52:44;;;;;;;2.33;2.33;;;;;;;14.28;96.04;65676.81;5114087;28;20207;-73
2022/07/06 06:55:10;;;;;;;2.27;2.27;;;;;;;14.40;96.63;65689.59;5113773;28;20671;-73
2022/07/06 06:57:37;;;;;;;2.07;1.80;;;;;;;14.49;96.65;65699.63;5114132;28;20294;-73
2022/07/06 07:00:05;;;;;;;2.73;2.07;;;;;;;14.52;97.12;65702.97;5114536;28;20730;-73
2022/07/06 07:02:31;;;;;;;2.53;2.43;;;;;;;14.62;96.24;65718.22;5113839;28;20257;-73
2022/07/06 07:04:57;;;;;;;3.13;1.97;;;;;;;14.67;95.57;65721.72;5113703;28;20688;-73
2022/07/06 07:07:24;;;;;;;2.20;2.10;;;;;;;14.66;95.04;65717.44;5113637;28;20238;-73
2022/07/06 07:09:50;;;;;;;2.07;2.03;;;;;;;14.69;94.98;65720.78;5113597;28;20210;-73
2022/07/06 07:12:17;;;;;;;1.90;1.90;;;;;;;14.73;95.60;65727.84;5113534;28;20192;-73
2022/07/06 07:14:44;;;;;;;2.30;1.93;;;;;;;14.83;94.20;65738.97;5113447;28;20249;-72
2022/07/06 07:17:11;;;;;;;2.30;2.20;;;;;;;14.91;94.08;65745.25;5113586;28;20539;-73
2022/07/06 07:19:38;;;;;;;1.97;1.93;;;;;;;14.96;92.77;65750.81;5114027;28;20272;-73
2022/07/06 07:22:04;;;;;;;1.90;1.70;;;;;;;;;;5113995;28;20233;-73
2022/07/06 07:24:31;;;;;;;2.17;1.80;;;;;;;14.94;92.06;65750.66;5113999;28;20184;-73
2022/07/06 07:26:57;;;;;;;1.60;1.60;;;;;;;;;;5113468;28;20203;-73
2022/07/06 07:29:23;;;;;;;1.63;1.60;;;;;;;15.07;91.53;65765.69;5113442;28;20268;-73
2022/07/06 07:31:50;;;;;;;2.07;1.97;;;;;;;;;;5113428;28;20193;-73
2022/07/06 07:34:17;;;;;;;1.50;1.50;;;;;;;15.26;90.89;65777.84;5113170;28;20802;-72
2022/07/06 07:36:43;;;;;;;2.03;1.87;;;;;;;15.19;90.19;65777.91;5113367;28;20234;-73
2022/07/06 07:39:09;;;;;;;1.90;1.77;;;;;;;15.30;89.52;65790.72;5113656;28;20647;-73
2022/07/06 07:41:36;;;;;;;1.70;1.70;;;;;;;15.17;89.24;65773.06;5113358;28;20165;-73
2022/07/06 07:44:02;;;;;;;1.60;1.60;;;;;;;;;;5113270;28;20201;-73
2022/07/06 07:46:29;;;;;;;2.17;2.07;;;;;;;15.41;88.86;65800.34;5113551;28;20178;-73
2022/07/06 07:48:55;;;;;;;1.80;1.70;;;;;;;;;;5095266;28;20181;-73
2022/07/06 07:51:22;;;;;;;2.10;2.03;;;;;;;15.75;86.40;65839.16;5094955;28;20237;-73
2022/07/06 07:53:48;;;;;;;2.20;2.10;;;;;;;15.76;86.67;65840.28;5113851;28;20607;-73
2022/07/06 07:56:15;;;;;;;2.23;2.03;;;;;;;15.77;85.13;65841.94;5106315;28;20193;-72
2022/07/06 07:58:41;;;;;;;1.80;1.80;;;;;;;15.61;82.26;65824.69;5112447;28;20221;-73
2022/07/06 08:01:09;;;;;;;1.67;1.67;;;;;;;15.67;83.88;65828.19;5094699;28;20193;-72
2022/07/06 08:03:36;;;;;;;1.97;1.97;;;;;;;15.67;83.72;65833.97;5108820;27;20236;-72
2022/07/06 08:06:02;;;;;;;3.17;1.77;;;;;;;;;;5112026;27;20280;-71
2022/07/06 08:08:29;;;;;;;3.07;1.70;;;;;;;15.58;85.26;65826.56;5118431;27;20197;-72
2022/07/06 08:10:55;;;;;;;1.57;1.57;;;;;;;15.65;85.00;65829.16;5110735;27;20194;-72
2022/07/06 08:13:41;;;;;;;1.60;1.60;;;;;;;15.69;84.01;65838.81;5116614;27;20218;-73
2022/07/06 08:16:09;;;;;;;1.80;1.70;;;;;;;15.78;83.08;65848.28;5118895;27;20189;-73
2022/07/06 08:18:36;;;;;;;2.13;2.13;;;;;;;15.85;85.06;65850.84;5116812;28;20189;-73
2022/07/06 08:21:03;;;;;;;1.87;1.77;;;;;;;15.92;85.28;65850.78;5115433;27;20715;-72
2022/07/06 08:23:50;;;;;;;2.03;1.97;;;;;;;15.95;85.82;65864.63;5109069;27;20212;-73
2022/07/06 08:26:16;;;;;;;2.73;1.87;;;;;;;;;;5122012;27;20185;-72
2022/07/06 08:28:44;;;;;;;1.77;1.67;;;;;;;16.06;81.66;65878.91;5099130;27;20193;-73
2022/07/06 08:31:10;;;;;;;2.33;2.00;;;;;;;16.01;81.02;65868.13;5120824;27;20220;-73
2022/07/06 08:33:57;;;;;;;2.63;2.43;;;;;;;;;;5119124;27;20220;-73
2022/07/06 08:36:24;;;;;;;2.03;1.97;;;;;;;16.04;82.31;65868.84;5116826;27;20268;-73
2022/07/06 08:38:50;;;;;;;2.17;2.07;;;;;;;16.10;83.42;65877.59;5121912;27;20234;-73
2022/07/06 08:41:17;;;;;;;2.03;2.03;;;;;;;;;;5110020;28;20223;-70
2022/07/06 08:43:51;;;;;;;1.70;1.70;;;;;;;16.17;83.79;65885.94;5112757;28;20212;-72
2022/07/06 08:46:19;;;;;;;1.90;1.90;;;;;;;16.20;82.77;65897.13;5112978;27;21381;-73
2022/07/06 08:48:47;;;;;;;1.50;1.50;;;;;;;16.31;82.60;65916.13;5118582;27;20193;-72
2022/07/06 08:51:14;;;;;;;2.80;1.60;;;;;;;16.35;83.19;65910.66;5103040;28;20190;-73
2022/07/06 08:53:42;;;;;;;1.90;1.60;;;;;;;16.46;82.64;65922.38;5122820;27;20689;-72
2022/07/06 08:56:08;;;;;;;1.40;1.40;;;;;;;16.54;82.12;65922.88;5123172;27;20547;-73
2022/07/06 08:58:35;;;;;;;1.90;1.80;;;;;;;16.60;81.42;65930.13;5114786;28;20197;-73
2022/07/06 09:01:01;;;;;;;1.60;1.60;;;;;;;;;;5115019;28;20181;-73
2022/07/06 09:03:28;;;;;;;2.30;2.10;;;;;;;16.42;77.42;65912.66;5113282;27;20237;-72
2022/07/06 09:05:59;;;;;;;4.73;1.93;;;;;;;16.33;75.89;65905.81;5113436;28;20614;-73
2022/07/06 09:08:27;;;;;;;1.57;1.57;;;;;;;16.37;76.85;65917.59;5116741;27;20263;-73
2022/07/06 09:10:54;;;;;;;2.83;2.00;;;;;;;16.47;78.71;65926.09;5123380;27;20224;-73
2022/07/06 09:13:20;;;;;;;1.50;1.50;;;;;;;16.40;81.58;65913.63;5132044;27;20205;-73
2022/07/06 09:15:47;;;;;;;1.93;1.83;;;;;;;16.44;81.30;65912.28;5115751;28;20184;-73
2022/07/06 09:18:14;;;;;;;2.00;2.00;;;;;;;16.35;80.90;65905.41;5117011;27;20211;-73
2022/07/06 09:20:41;;;;;;;16.43;2.07;;;;;;;16.28;81.49;65897.06;5115229;28;20193;-73
2022/07/06 09:23:08;;;;;;;2.53;1.83;;;;;;;16.28;81.46;65897.06;5107480;28;20217;-72
2022/07/06 09:25:46;;;;;;;1.67;1.67;;;;;;;16.28;77.66;65900.25;5111598;28;20200;-73
2022/07/06 09:28:13;;;;;;;2.07;1.97;;;;;;;16.35;78.25;65904.88;5111220;28;20221;-72
2022/07/06 09:30:41;;;;;;;1.77;1.67;;;;;;;16.32;78.99;65902.09;5112307;28;20227;-72
2022/07/06 09:33:08;;;;;;;1.60;1.60;;;;;;;16.30;76.63;65907.72;5107441;28;20687;-73
2022/07/06 09:35:38;;;;;;;1.27;1.27;;;;;;;16.09;77.54;65874.41;5112145;28;20189;-73
2022/07/06 09:38:07;;;;;;;1.40;1.40;;;;;;;16.19;79.57;65888.16;5099792;28;20227;-73
2022/07/06 09:40:39;;;;;;;7.20;2.27;;;;;;;16.24;79.71;65893.19;5102005;28;20643;-73
2022/07/06 09:43:10;;;;;;;2.13;1.93;;;;;;;16.26;79.85;65894.84;5111295;28;20216;-73
2022/07/06 09:45:39;;;;;;;2.73;2.53;;;;;;;16.38;80.52;65905.59;5109475;28;20189;-72
2022/07/06 09:48:10;;;;;;;2.10;1.90;;;;;;;16.54;81.67;65926.03;5108156;28;20193;-73
2022/07/06 09:50:44;;;;;;;2.03;1.93;;;;;;;16.80;82.08;65953.94;5115361;28;20284;-73
2022/07/06 09:53:11;;;;;;;1.77;1.67;;;;;;;16.97;78.52;65972.88;5111585;28;20243;-73
2022/07/06 09:55:38;;;;;;;1.77;1.67;;;;;;;;;;5111103;28;20224;-74
2022/07/06 09:58:04;;;;;;;2.00;1.90;;;;;;;16.78;76.96;65952.81;5112416;28;20184;-73
2022/07/06 10:00:31;;;;;;;1.73;1.73;;;;;;;16.78;77.65;65952.25;5114444;28;20189;-73
2022/07/06 10:02:57;;;;;;;1.57;1.57;;;;;;;;;;5103071;28;20286;-72
2022/07/06 10:05:34;;;;;;;1.67;1.60;;;;;;;16.78;76.29;65960.13;5113159;28;20316;-73
2022/07/06 10:08:01;;;;;;;1.93;1.80;;;;;;;16.63;76.86;65941.31;5113691;28;20193;-73
2022/07/06 10:10:29;;;;;;;1.70;1.70;;;;;;;16.74;77.55;65945.72;5108869;28;20185;-73
2022/07/06 10:12:57;;;;;;;3.13;1.93;;;;;;;16.68;77.15;65949.50;5108436;28;20217;-73
2022/07/06 10:15:26;;;;;;;1.33;1.33;;;;;;;16.82;77.86;65958.78;5109415;28;20698;-73
2022/07/06 10:17:54;;;;;;;1.67;1.57;;;;;;;;;;5112657;27;20197;-72
2022/07/06 10:20:20;;;;;;;1.37;1.37;;;;;;;16.91;77.51;65966.19;5110047;28;20185;-73
2022/07/06 10:22:48;;;;;;;1.33;1.30;;;;;;;17.09;77.83;65983.63;5110330;28;20213;-72
2022/07/06 10:25:16;;;;;;;1.87;1.80;;;;;;;17.12;75.40;65989.59;5112728;28;20185;-73
2022/07/06 10:27:44;;;;;;;1.80;1.80;;;;;;;;;;5112016;28;20234;-73
2022/07/06 10:30:11;;;;;;;1.93;1.83;;;;;;;17.33;75.80;66012.44;5113507;28;20250;-73
2022/07/06 10:32:40;;;;;;;2.27;2.27;;;;;;;17.32;74.48;66011.34;5105176;28;20319;-73
2022/07/06 10:35:07;;;;;;;1.43;1.43;;;;;;;;;;5111784;28;20751;-73
2022/07/06 10:37:34;;;;;;;1.70;1.70;;;;;;;17.46;73.81;66023.78;5112759;28;20622;-73
2022/07/06 10:43:01;;;;;;;1.57;1.47;;;;;;;17.54;73.03;66035.31;5106798;28;20217;-73
2022/07/06 10:45:28;;;;;;;1.83;1.73;;;;;;;17.51;70.44;66029.34;5104185;28;20181;-73
2022/07/06 10:48:12;;;;;;;1.63;1.63;;;;;;;;;;5111834;28;20602;-73
2022/07/06 10:50:40;;;;;;;1.87;1.60;;;;;;;17.46;70.51;66026.94;5110760;28;20223;-73
2022/07/06 10:53:12;;;;;;;1.50;1.50;;;;;;;17.39;72.40;66018.59;5113781;28;20217;-73
2022/07/06 10:55:40;;;;;;;1.67;1.67;;;;;;;17.50;70.00;66023.53;5103128;28;20201;-73
2022/07/06 10:58:07;;;;;;;1.93;1.73;;;;;;;17.69;68.62;66051.47;5112824;28;20181;-73
2022/07/06 11:00:51;;;;;;;2.03;1.90;;;;;;;17.67;68.57;66049.81;5112029;28;20193;-75
2022/07/06 11:03:34;;;;;;;1.53;1.53;;;;;;;;;;5112349;28;20242;-72
2022/07/06 11:06:06;;;;;;;1.60;1.60;;;;;;;17.65;68.87;66047.59;5093290;28;20194;-73
2022/07/06 11:08:55;;;;;;;2.07;2.07;;;;;;;17.78;69.75;66062.09;5099274;28;20192;-73
2022/07/06 11:11:26;;;;;;;1.57;1.57;;;;;;;17.83;69.87;66069.75;5099978;28;20213;-73
2022/07/06 11:14:08;;;;;;;1.10;1.10;;;;;;;17.96;70.10;66073.19;5100793;28;20266;-72
2022/07/06 11:16:40;;;;;;;1.50;1.50;;;;;;;;;;5112492;28;20216;-73
2022/07/06 11:19:12;;;;;;;4.53;1.60;;;;;;;17.88;70.31;66070.09;5113181;28;20197;-73
2022/07/06 11:21:43;;;;;;;1.37;1.37;;;;;;;17.87;70.59;66072.16;5110853;28;20197;-73
2022/07/06 11:24:12;;;;;;;3.33;1.50;;;;;;;17.67;68.79;66049.25;5105534;28;20205;-73
2022/07/06 11:26:39;;;;;;;1.60;1.60;;;;;;;17.53;69.11;66031.56;5109430;28;20655;-72
2022/07/06 11:29:07;;;;;;;2.60;1.63;;;;;;;;;;5112482;28;20205;-73
2022/07/06 11:31:37;;;;;;;1.73;1.73;;;;;;;17.92;70.03;66077.16;5112891;28;20186;-72
2022/07/06 11:34:04;;;;;;;1.40;1.40;;;;;;;;;;5095070;28;20260;-74
2022/07/06 11:36:31;;;;;;;4.57;1.40;;;;;;;18.52;69.29;66140.38;5097104;28;20228;-74
2022/07/06 11:39:05;;;;;;;1.37;1.30;;;;;;;18.44;66.72;66134.09;5112863;28;20267;-73
2022/07/06 11:41:31;;;;;;;1.80;1.67;;;;;;;;;;5117609;28;20609;-74
2022/07/06 11:43:58;;;;;;;2.67;1.67;;;;;;;18.50;65.70;66129.69;5117130;28;20236;-73
2022/07/06 11:46:29;;;;;;;1.90;1.90;;;;;;;;;;5114533;28;20189;-73
2022/07/06 11:48:58;;;;;;;1.70;1.70;;;;;;;18.49;66.39;66139.66;5113308;28;20189;-73
2022/07/06 11:51:26;;;;;;;1.67;1.60;;;;;;;18.32;67.07;66113.34;5108851;27;20215;-72
2022/07/06 11:53:53;;;;;;;1.20;1.20;;;;;;;;;;5122568;27;20291;-73
2022/07/06 11:56:25;;;;;;;1.77;1.77;;;;;;;;;;5115593;28;20197;-74
2022/07/06 11:58:52;;;;;;;1.77;1.40;;;;;;;;;;5115814;27;20174;-72
2022/07/06 12:01:19;;;;;;;1.27;1.27;;;;;;;;;;5112413;27;20529;-72
2022/07/06 12:03:45;;;;;;;2.20;1.57;;;;;;;;;;5112476;28;20244;-73
2022/07/06 12:06:23;;;;;;;1.60;1.60;;;;;;;18.73;63.31;66168.53;5110552;28;20275;-73
2022/07/06 12:08:52;;;;;;;1.33;1.33;;;;;;;18.76;64.73;66166.63;5113043;28;20238;-74